Time;durP1;ratioP1;P1;durP2;ratioP2;P2;SDS_P1;SDS_P2;PMS_P1;PMS_P2;Temp;Humidity;BMP_temperature;BMP_pressure;BME280_temperature;BME280_humidity;BME280_pressure;Samples;Min_cycle;Max_cycle;Signal;HPM_P1;HPM_P2
2024/01/03 05:01:52;;;;;;;2.75;1.05;;;8.70;99.90;;;;;;5230230;23;20248;-73
2024/01/03 05:04:19;;;;;;;0.80;0.80;;;8.70;99.90;;;;;;4935592;29;20217;-74
2024/01/03 05:06:46;;;;;;;2.20;0.73;;;8.70;99.90;;;;;;4932387;29;20206;-73
2024/01/03 05:09:12;;;;;;;1.30;0.77;;;8.70;99.90;;;;;;4933198;29;20206;-73
2024/01/03 05:11:39;;;;;;;0.40;0.40;;;8.80;99.90;;;;;;4921287;29;20230;-73
2024/01/03 05:14:06;;;;;;;2.10;1.05;;;8.70;99.90;;;;;;4917283;29;20308;-73
2024/01/03 05:16:33;;;;;;;1.52;0.75;;;8.70;99.90;;;;;;4915113;29;20219;-73
2024/01/03 05:19:01;;;;;;;3.22;1.25;;;8.70;99.90;;;;;;4913907;29;20600;-73
2024/01/03 05:21:28;;;;;;;0.90;0.90;;;8.70;99.90;;;;;;4913637;29;20238;-73
2024/01/03 05:23:54;;;;;;;1.25;0.90;;;8.80;99.90;;;;;;4910379;29;20245;-73
2024/01/03 05:26:21;;;;;;;1.23;1.20;;;8.80;99.90;;;;;;4915309;29;20233;-74
2024/01/03 05:28:48;;;;;;;0.60;0.60;;;8.70;99.90;;;;;;4911329;29;20239;-72
2024/01/03 05:31:14;;;;;;;9.35;1.85;;;8.80;99.90;;;;;;4914937;29;20245;-73
2024/01/03 05:33:42;;;;;;;1.60;0.80;;;8.80;99.90;;;;;;4915942;29;20212;-74
2024/01/03 05:36:10;;;;;;;6.50;1.58;;;8.80;99.90;;;;;;4919334;29;20218;-73
2024/01/03 05:38:38;;;;;;;0.93;0.40;;;8.80;99.90;;;;;;4915098;29;20282;-73
2024/01/03 05:41:05;;;;;;;3.50;0.90;;;8.80;99.90;;;;;;4914269;29;20669;-73
2024/01/03 05:43:32;;;;;;;0.85;0.50;;;8.80;99.90;;;;;;4915558;29;20207;-72
2024/01/03 05:45:59;;;;;;;20.85;1.95;;;8.80;99.90;;;;;;4914885;29;20224;-73
2024/01/03 05:48:25;;;;;;;1.02;1.02;;;8.80;99.90;;;;;;4915394;29;20212;-72
2024/01/03 05:50:52;;;;;;;7.82;1.20;;;8.80;99.90;;;;;;4917665;29;20254;-72
2024/01/03 05:53:20;;;;;;;4.65;1.70;;;8.80;99.90;;;;;;4916870;29;20215;-72
2024/01/03 05:55:47;;;;;;;3.03;1.20;;;8.80;99.90;;;;;;4913990;29;20242;-73
2024/01/03 05:58:13;;;;;;;3.65;1.25;;;8.80;99.90;;;;;;4918712;29;20213;-72
2024/01/03 06:00:40;;;;;;;2.78;1.15;;;8.80;99.90;;;;;;4916024;29;20685;-73
2024/01/03 06:03:07;;;;;;;1.05;1.05;;;8.90;99.90;;;;;;4916865;29;20211;-73
2024/01/03 06:05:34;;;;;;;1.83;1.30;;;8.90;99.90;;;;;;4918255;29;20215;-73
2024/01/03 06:08:01;;;;;;;1.52;1.42;;;8.80;99.90;;;;;;4916032;29;20328;-73
2024/01/03 06:10:29;;;;;;;0.65;0.65;;;8.80;99.90;;;;;;4915479;29;20586;-73
2024/01/03 06:12:56;;;;;;;2.92;1.10;;;8.90;99.90;;;;;;4913530;29;20224;-73
2024/01/03 06:15:22;;;;;;;3.33;0.77;;;8.80;99.90;;;;;;4915870;29;20217;-72
2024/01/03 06:17:49;;;;;;;0.52;0.50;;;8.90;99.90;;;;;;4915156;29;20666;-72
2024/01/03 06:20:16;;;;;;;6.40;0.95;;;8.90;99.90;;;;;;4918520;29;20211;-73
2024/01/03 06:22:43;;;;;;;1.85;1.08;;;8.90;99.90;;;;;;4913231;29;20214;-73
2024/01/03 06:25:09;;;;;;;1.50;1.40;;;8.90;99.90;;;;;;4915075;29;20217;-73
2024/01/03 06:27:38;;;;;;;0.40;0.40;;;8.90;99.90;;;;;;4914952;29;20229;-73
2024/01/03 06:30:05;;;;;;;1.15;0.90;;;8.90;99.90;;;;;;4918641;29;20665;-73
2024/01/03 06:32:32;;;;;;;4.80;0.85;;;8.90;99.90;;;;;;4914984;29;20229;-73
2024/01/03 06:34:59;;;;;;;5.75;0.93;;;8.90;99.90;;;;;;4914493;29;20207;-73
2024/01/03 06:37:25;;;;;;;2.03;1.00;;;8.90;99.90;;;;;;4913823;29;20209;-73
2024/01/03 06:39:52;;;;;;;3.08;0.88;;;8.90;99.90;;;;;;4913737;29;20226;-73
2024/01/03 06:42:19;;;;;;;5.40;0.68;;;9.00;99.90;;;;;;4911279;29;20227;-73
2024/01/03 06:44:47;;;;;;;0.30;0.30;;;9.00;99.90;;;;;;4914206;29;20214;-73
2024/01/03 06:47:14;;;;;;;3.60;0.93;;;8.90;99.90;;;;;;4908563;29;20206;-73
2024/01/03 06:49:41;;;;;;;5.70;0.93;;;9.00;99.90;;;;;;4916988;29;20205;-73
2024/01/03 06:52:07;;;;;;;0.30;0.30;;;9.00;99.90;;;;;;4914601;29;20242;-73
2024/01/03 06:54:36;;;;;;;4.53;1.02;;;9.00;99.90;;;;;;4913409;29;20225;-73
2024/01/03 06:57:04;;;;;;;1.00;0.82;;;9.00;99.90;;;;;;4914819;29;20217;-73
2024/01/03 06:59:35;;;;;;;3.33;0.63;;;8.90;99.90;;;;;;4914772;29;20331;-73
2024/01/03 07:02:03;;;;;;;3.35;0.45;;;9.00;99.90;;;;;;4912722;29;20234;-73
2024/01/03 07:04:30;;;;;;;1.10;0.57;;;9.00;99.90;;;;;;4914663;29;20206;-73
2024/01/03 07:06:57;;;;;;;1.30;0.47;;;9.00;99.90;;;;;;4909078;29;20226;-73
2024/01/03 07:09:26;;;;;;;1.63;0.32;;;9.10;99.90;;;;;;4914259;29;20213;-73
2024/01/03 07:11:54;;;;;;;2.92;0.80;;;9.10;99.90;;;;;;4913260;29;20629;-73
2024/01/03 07:14:21;;;;;;;0.68;0.60;;;9.10;99.90;;;;;;4911177;29;20214;-73
2024/01/03 07:16:47;;;;;;;0.75;0.52;;;9.10;99.90;;;;;;4915804;29;20222;-73
2024/01/03 07:19:15;;;;;;;4.85;1.30;;;9.20;99.90;;;;;;4911013;29;20210;-72
2024/01/03 07:21:42;;;;;;;2.97;1.17;;;9.20;99.90;;;;;;4911260;29;20249;-72
2024/01/03 07:24:10;;;;;;;2.47;1.00;;;9.20;99.90;;;;;;4912901;29;20202;-72
2024/01/03 07:26:37;;;;;;;1.42;0.90;;;9.20;99.90;;;;;;4913729;29;20218;-72
2024/01/03 07:29:03;;;;;;;0.98;0.93;;;9.20;99.90;;;;;;4912766;29;20602;-68
2024/01/03 07:31:30;;;;;;;1.42;0.80;;;9.20;99.90;;;;;;4914676;29;20226;-72
2024/01/03 07:33:57;;;;;;;1.20;1.00;;;9.30;99.90;;;;;;4912610;29;20212;-72
2024/01/03 07:36:25;;;;;;;0.80;0.80;;;9.40;99.90;;;;;;4917075;29;20211;-73
2024/01/03 07:38:52;;;;;;;10.38;1.55;;;9.50;99.90;;;;;;4911729;29;20212;-73
2024/01/03 07:41:19;;;;;;;3.00;0.60;;;9.50;99.90;;;;;;4911258;29;20678;-72
2024/01/03 07:43:46;;;;;;;8.60;1.38;;;9.50;99.90;;;;;;4914072;29;20267;-72
2024/01/03 07:46:16;;;;;;;6.47;1.98;;;9.50;99.90;;;;;;4911869;29;20519;-72
2024/01/03 07:48:42;;;;;;;1.20;1.10;;;9.50;99.90;;;;;;4912454;29;20297;-72
2024/01/03 07:51:10;;;;;;;0.70;0.70;;;9.50;99.90;;;;;;4911892;29;20226;-71
2024/01/03 07:53:38;;;;;;;2.95;0.98;;;9.50;99.90;;;;;;4911863;29;20210;-71
2024/01/03 07:56:08;;;;;;;1.08;0.63;;;9.50;99.90;;;;;;4905076;29;20215;-71
2024/01/03 07:58:35;;;;;;;4.28;0.80;;;9.50;99.90;;;;;;4914993;29;20223;-71
2024/01/03 08:01:02;;;;;;;0.95;0.90;;;9.50;99.90;;;;;;4914905;29;20754;-71
2024/01/03 08:03:28;;;;;;;3.95;1.95;;;9.50;99.90;;;;;;4917383;29;20211;-71
2024/01/03 08:05:55;;;;;;;7.72;2.78;;;9.60;99.90;;;;;;4914142;29;20580;-71
2024/01/03 08:08:22;;;;;;;3.55;1.85;;;9.60;99.90;;;;;;4916469;29;20211;-71
2024/01/03 08:10:50;;;;;;;1.27;1.27;;;9.60;99.90;;;;;;4916704;29;20608;-71
2024/01/03 08:13:17;;;;;;;1.65;1.02;;;9.60;99.90;;;;;;4917327;29;20222;-71
2024/01/03 08:15:43;;;;;;;5.07;1.58;;;9.60;99.90;;;;;;4917258;29;20211;-71
2024/01/03 08:18:10;;;;;;;2.35;1.85;;;9.60;99.90;;;;;;4917492;29;20248;-71
2024/01/03 08:20:37;;;;;;;1.98;0.95;;;9.60;99.90;;;;;;4917283;29;20233;-71
2024/01/03 08:23:04;;;;;;;7.50;4.68;;;9.60;99.90;;;;;;4914905;29;20239;-71
2024/01/03 08:25:31;;;;;;;3.05;1.00;;;9.70;99.90;;;;;;4918178;29;20211;-71
2024/01/03 08:27:59;;;;;;;5.60;2.25;;;9.70;99.90;;;;;;4916464;29;20213;-72
2024/01/03 08:30:26;;;;;;;1.85;0.90;;;9.70;99.90;;;;;;4918183;29;20212;-72
2024/01/03 08:32:52;;;;;;;3.90;1.48;;;9.70;99.90;;;;;;4919916;29;20264;-72
2024/01/03 08:35:19;;;;;;;4.88;1.23;;;9.70;99.90;;;;;;4914935;29;20213;-72
2024/01/03 08:37:46;;;;;;;4.07;1.50;;;9.70;99.90;;;;;;4914525;29;20208;-72
2024/01/03 08:40:13;;;;;;;5.15;1.00;;;9.70;99.90;;;;;;4917447;29;20678;-71
2024/01/03 08:42:40;;;;;;;8.38;1.05;;;9.70;99.90;;;;;;4916952;29;20220;-71
2024/01/03 08:45:10;;;;;;;0.80;0.80;;;9.80;99.90;;;;;;4916127;29;20220;-72
2024/01/03 08:47:36;;;;;;;4.88;1.00;;;9.80;99.90;;;;;;4913497;29;20231;-71
2024/01/03 08:50:03;;;;;;;2.30;0.75;;;9.80;99.90;;;;;;4916684;29;20696;-71
2024/01/03 08:52:30;;;;;;;1.65;0.90;;;9.80;99.90;;;;;;4916590;29;20256;-72
2024/01/03 08:54:57;;;;;;;1.67;1.27;;;9.80;99.90;;;;;;4917679;29;20208;-71
2024/01/03 08:57:24;;;;;;;6.15;1.10;;;9.80;99.90;;;;;;4916152;29;20678;-71
2024/01/03 08:59:51;;;;;;;6.38;1.35;;;9.90;99.90;;;;;;4915985;29;20227;-71
2024/01/03 09:02:19;;;;;;;10.40;1.38;;;9.90;99.90;;;;;;4914670;29;20602;-72
2024/01/03 09:04:46;;;;;;;2.05;1.00;;;9.90;99.90;;;;;;4914051;29;20644;-71
2024/01/03 09:07:12;;;;;;;3.35;1.35;;;9.90;99.90;;;;;;4918125;29;20216;-71
2024/01/03 09:09:40;;;;;;;2.30;1.13;;;9.90;99.90;;;;;;4910235;29;20300;-71
2024/01/03 09:12:07;;;;;;;1.50;1.40;;;9.90;99.90;;;;;;4914902;29;20253;-71
2024/01/03 09:14:34;;;;;;;0.50;0.50;;;9.90;99.90;;;;;;4915774;29;20556;-71
2024/01/03 09:17:01;;;;;;;2.58;0.80;;;10.00;99.90;;;;;;4918823;29;20224;-71
2024/01/03 09:19:30;;;;;;;2.65;1.20;;;10.00;99.90;;;;;;4914674;29;20700;-71
2024/01/03 09:21:59;;;;;;;4.25;1.17;;;10.00;99.90;;;;;;4910366;29;20332;-72
2024/01/03 09:24:27;;;;;;;3.67;1.55;;;10.00;99.90;;;;;;4911380;29;20212;-72
2024/01/03 09:26:53;;;;;;;3.22;1.10;;;10.10;99.90;;;;;;4913969;29;20660;-71
2024/01/03 09:29:20;;;;;;;1.85;0.88;;;10.10;99.90;;;;;;4915266;29;20209;-71
2024/01/03 09:31:47;;;;;;;3.38;1.25;;;10.10;99.90;;;;;;4912896;29;20672;-71
2024/01/03 09:34:13;;;;;;;1.10;0.90;;;10.10;99.90;;;;;;4914406;29;20317;-71
2024/01/03 09:36:41;;;;;;;1.00;1.00;;;10.20;99.90;;;;;;4915913;29;20211;-72
2024/01/03 09:39:09;;;;;;;4.82;1.45;;;10.20;99.90;;;;;;4916084;29;20221;-72
2024/01/03 09:41:37;;;;;;;4.65;1.10;;;10.20;99.90;;;;;;4917263;29;20240;-71
2024/01/03 09:44:05;;;;;;;4.65;1.02;;;10.30;99.90;;;;;;4916090;29;20232;-71
2024/01/03 09:46:32;;;;;;;3.55;1.50;;;10.30;99.90;;;;;;4915447;29;20212;-71
2024/01/03 09:48:59;;;;;;;3.13;1.60;;;10.40;99.90;;;;;;4914403;29;20271;-71
2024/01/03 09:51:26;;;;;;;1.33;1.30;;;10.40;99.90;;;;;;4915426;29;20321;-71
2024/01/03 09:53:54;;;;;;;0.75;0.75;;;10.50;99.90;;;;;;4913945;29;20218;-72
2024/01/03 09:56:22;;;;;;;3.33;1.38;;;10.50;99.90;;;;;;4913681;29;20538;-71
2024/01/03 09:58:48;;;;;;;4.05;1.00;;;10.40;99.90;;;;;;4913365;29;20745;-72
2024/01/03 10:01:15;;;;;;;2.80;1.13;;;10.40;99.90;;;;;;4903629;29;20249;-71
2024/01/03 10:03:42;;;;;;;0.60;0.60;;;10.50;99.90;;;;;;4906594;29;20246;-74
2024/01/03 10:06:13;;;;;;;2.75;1.05;;;10.50;99.90;;;;;;4912473;29;20540;-72
2024/01/03 10:08:40;;;;;;;11.70;1.25;;;10.50;99.90;;;;;;4905497;29;20210;-71
2024/01/03 10:11:21;;;;;;;2.63;1.98;;;10.50;99.90;;;;;;4912090;29;20241;-71
2024/01/03 10:13:50;;;;;;;1.27;0.52;;;10.40;99.90;;;;;;4913460;29;20213;-71
2024/01/03 10:16:24;;;;;;;3.05;0.82;;;10.40;99.90;;;;;;4915225;29;20655;-71
2024/01/03 10:19:10;;;;;;;1.10;1.10;;;10.40;99.90;;;;;;4913663;29;20278;-71
2024/01/03 10:21:38;;;;;;;7.88;5.78;;;10.40;99.90;;;;;;4908964;29;20315;-72
2024/01/03 10:24:07;;;;;;;3.97;2.00;;;10.40;99.90;;;;;;4913131;29;20237;-71
2024/01/03 10:26:35;;;;;;;1.15;1.15;;;10.40;99.90;;;;;;4916755;29;21551;-71
2024/01/03 10:29:09;;;;;;;0.77;0.77;;;10.40;99.90;;;;;;4920494;29;20228;-71
2024/01/03 10:31:36;;;;;;;1.70;1.60;;;10.40;99.90;;;;;;4914019;29;20600;-71
2024/01/03 10:34:04;;;;;;;1.98;1.10;;;10.40;99.90;;;;;;4913975;29;20218;-71
2024/01/03 10:36:33;;;;;;;1.02;1.00;;;10.40;99.90;;;;;;4914542;29;20213;-72
2024/01/03 10:39:00;;;;;;;3.90;0.68;;;10.30;99.90;;;;;;4914992;29;20229;-71
2024/01/03 10:41:27;;;;;;;1.42;0.65;;;10.40;99.90;;;;;;4910718;29;20700;-70
2024/01/03 10:43:56;;;;;;;0.80;0.80;;;10.30;99.90;;;;;;4908841;29;20234;-71
2024/01/03 10:46:24;;;;;;;1.30;0.55;;;10.30;99.90;;;;;;4911665;29;20222;-70
2024/01/03 10:48:51;;;;;;;0.70;0.70;;;10.30;99.90;;;;;;4913849;29;20241;-70
2024/01/03 10:51:22;;;;;;;1.38;0.50;;;10.30;99.90;;;;;;4912641;29;20687;-71
2024/01/03 10:53:52;;;;;;;3.15;1.25;;;10.30;99.90;;;;;;4913565;29;20213;-71
2024/01/03 10:56:20;;;;;;;2.50;0.40;;;10.30;99.90;;;;;;4909246;29;20257;-72
2024/01/03 10:58:49;;;;;;;0.30;0.30;;;10.40;99.90;;;;;;4912407;29;20216;-71
2024/01/03 11:01:20;;;;;;;2.00;0.90;;;10.50;99.90;;;;;;4910082;29;20442;-70
2024/01/03 11:04:00;;;;;;;0.82;0.82;;;10.50;99.90;;;;;;4908860;29;20233;-71
2024/01/03 11:06:33;;;;;;;3.42;0.50;;;10.60;99.90;;;;;;4912985;29;20218;-70
2024/01/03 11:09:01;;;;;;;1.70;1.25;;;10.60;99.90;;;;;;4911862;29;20222;-71
2024/01/03 11:11:32;;;;;;;0.60;0.47;;;10.60;99.90;;;;;;4916800;29;20234;-73
2024/01/03 11:13:59;;;;;;;4.68;0.90;;;10.50;99.90;;;;;;4917020;29;20206;-70
2024/01/03 11:16:38;;;;;;;0.73;0.73;;;10.50;99.90;;;;;;4911193;29;20220;-70
2024/01/03 11:19:07;;;;;;;3.25;1.25;;;10.50;99.90;;;;;;4910896;29;20217;-71
2024/01/03 11:21:45;;;;;;;3.03;1.38;;;10.50;99.90;;;;;;4914236;29;20249;-71
2024/01/03 11:24:52;;;;;;;1.38;0.93;;;10.40;99.90;;;;;;4913903;29;20233;-70
2024/01/03 11:27:21;;;;;;;7.20;1.00;;;10.40;99.90;;;;;;4910612;29;20217;-70
2024/01/03 11:29:49;;;;;;;2.40;2.25;;;10.40;99.90;;;;;;4909092;29;20696;-71
2024/01/03 11:32:28;;;;;;;5.07;1.45;;;10.40;99.90;;;;;;4910098;29;20226;-70
2024/01/03 11:34:54;;;;;;;1.38;0.95;;;10.30;99.90;;;;;;4914589;29;20604;-70
2024/01/03 11:37:36;;;;;;;0.85;0.85;;;10.40;99.90;;;;;;4913001;29;20224;-70
2024/01/03 11:40:06;;;;;;;0.82;0.82;;;10.40;99.90;;;;;;4910327;29;20210;-70
2024/01/03 11:42:34;;;;;;;1.67;0.68;;;10.30;99.90;;;;;;4914265;29;20244;-70
2024/01/03 11:45:04;;;;;;;1.90;1.10;;;10.40;99.90;;;;;;4909712;29;20210;-69
2024/01/03 11:47:33;;;;;;;1.60;1.50;;;10.40;99.90;;;;;;4911420;29;20205;-70
2024/01/03 11:50:03;;;;;;;1.17;1.13;;;10.40;99.90;;;;;;4911845;29;20243;-71
2024/01/03 11:52:30;;;;;;;1.33;1.25;;;10.40;99.90;;;;;;4913769;29;20262;-71
2024/01/03 11:55:07;;;;;;;0.77;0.77;;;10.40;99.90;;;;;;4909575;29;20206;-71
2024/01/03 11:57:37;;;;;;;0.68;0.68;;;10.30;99.90;;;;;;4911874;29;20213;-71
2024/01/03 12:00:06;;;;;;;1.33;1.00;;;10.30;99.90;;;;;;4911183;29;20213;-72
2024/01/03 12:02:34;;;;;;;2.88;1.08;;;10.30;99.90;;;;;;4906002;29;20696;-71
2024/01/03 12:05:02;;;;;;;0.60;0.55;;;10.20;99.90;;;;;;4915108;29;20346;-70
2024/01/03 12:07:30;;;;;;;2.25;1.25;;;10.20;99.90;;;;;;4911353;29;20219;-71
2024/01/03 12:09:58;;;;;;;1.73;0.65;;;10.10;99.90;;;;;;4912504;29;20244;-70
2024/01/03 12:12:25;;;;;;;1.13;1.10;;;10.10;99.90;;;;;;4910823;29;20326;-70
2024/01/03 12:14:53;;;;;;;0.75;0.75;;;10.10;99.90;;;;;;4911113;29;20217;-71
2024/01/03 12:17:27;;;;;;;2.42;0.88;;;10.10;99.90;;;;;;4905482;29;20213;-70
2024/01/03 12:20:06;;;;;;;1.00;0.73;;;10.10;99.90;;;;;;4911070;29;20250;-71
2024/01/03 12:22:33;;;;;;;0.80;0.80;;;10.00;99.90;;;;;;4911012;29;20225;-71
2024/01/03 12:24:59;;;;;;;1.00;0.40;;;10.00;99.90;;;;;;4917896;29;20217;-71
2024/01/03 12:27:26;;;;;;;1.27;1.05;;;10.00;99.90;;;;;;4908464;29;20315;-71
2024/01/03 12:30:11;;;;;;;0.68;0.68;;;10.00;99.90;;;;;;4914813;29;20402;-71
2024/01/03 12:32:38;;;;;;;0.70;0.70;;;10.00;99.90;;;;;;4909247;29;20211;-70
2024/01/03 12:35:07;;;;;;;0.43;0.43;;;10.00;99.90;;;;;;4911446;29;20243;-72
2024/01/03 12:37:34;;;;;;;0.40;0.40;;;10.00;99.90;;;;;;4911166;29;20572;-71
2024/01/03 12:40:00;;;;;;;1.60;0.80;;;10.00;99.90;;;;;;4910661;29;20317;-72
2024/01/03 12:42:28;;;;;;;2.55;0.50;;;9.90;99.90;;;;;;4911549;29;20837;-72
2024/01/03 12:44:54;;;;;;;2.20;0.63;;;9.80;99.90;;;;;;4913209;29;20216;-71
2024/01/03 12:47:21;;;;;;;0.57;0.52;;;9.90;99.90;;;;;;4911869;29;20289;-71
2024/01/03 12:49:48;;;;;;;0.82;0.82;;;9.90;99.90;;;;;;4915961;29;20713;-71
2024/01/03 12:52:26;;;;;;;2.70;0.80;;;9.80;99.90;;;;;;4912386;29;20242;-70
2024/01/03 12:54:53;;;;;;;0.70;0.70;;;9.80;99.90;;;;;;4910626;29;20213;-73
2024/01/03 12:57:20;;;;;;;0.45;0.45;;;9.70;99.90;;;;;;4915616;29;20219;-71
2024/01/03 12:59:47;;;;;;;0.35;0.35;;;9.70;99.90;;;;;;4915643;29;20208;-71
2024/01/03 13:02:14;;;;;;;1.02;0.50;;;9.70;99.90;;;;;;4912793;29;20267;-71
2024/01/03 13:04:41;;;;;;;1.10;0.55;;;9.80;99.90;;;;;;4911355;29;20232;-71
2024/01/03 13:07:08;;;;;;;2.97;1.42;;;9.80;99.90;;;;;;4917861;29;20283;-69
2024/01/03 13:09:36;;;;;;;0.80;0.80;;;9.80;99.90;;;;;;4914566;29;20212;-71
2024/01/03 13:12:03;;;;;;;0.88;0.88;;;9.70;99.90;;;;;;4913859;29;20248;-71
2024/01/03 13:14:30;;;;;;;1.88;1.30;;;9.80;99.90;;;;;;4917460;29;20209;-72
2024/01/03 13:16:57;;;;;;;1.40;1.40;;;9.80;99.90;;;;;;4920699;29;20212;-70
2024/01/03 13:19:23;;;;;;;1.75;0.98;;;9.80;99.90;;;;;;4929183;29;20215;-71
2024/01/03 13:21:50;;;;;;;0.70;0.70;;;9.80;99.90;;;;;;4923261;29;20247;-70
2024/01/03 13:24:17;;;;;;;1.55;1.45;;;9.90;99.90;;;;;;4915211;29;20233;-70
2024/01/03 13:26:47;;;;;;;1.33;0.63;;;9.90;99.90;;;;;;4910867;29;20217;-71
2024/01/03 13:29:14;;;;;;;2.65;1.20;;;9.90;99.90;;;;;;4913186;29;20767;-71
2024/01/03 13:31:40;;;;;;;1.13;1.05;;;10.00;99.90;;;;;;4913002;29;20240;-70
2024/01/03 13:34:07;;;;;;;4.35;2.08;;;10.00;99.90;;;;;;4915381;29;20205;-70
2024/01/03 13:36:35;;;;;;;1.10;1.10;;;10.00;99.90;;;;;;4912380;29;20212;-71
2024/01/03 13:39:01;;;;;;;2.42;1.10;;;10.00;99.90;;;;;;4909868;29;20212;-70
2024/01/03 13:41:29;;;;;;;19.27;9.43;;;10.00;99.90;;;;;;4914135;29;20714;-70
2024/01/03 13:43:59;;;;;;;4.30;0.85;;;9.90;99.90;;;;;;4908329;29;20297;-71
2024/01/03 13:46:28;;;;;;;1.85;0.85;;;10.00;99.90;;;;;;4903585;29;20220;-72
2024/01/03 13:48:55;;;;;;;8.52;2.05;;;10.00;99.90;;;;;;4911933;29;20216;-72
2024/01/03 13:51:22;;;;;;;0.68;0.68;;;10.00;99.90;;;;;;4911506;29;20232;-73
2024/01/03 13:53:49;;;;;;;0.80;0.80;;;10.00;99.90;;;;;;4914488;29;20355;-72
2024/01/03 13:56:20;;;;;;;3.90;0.85;;;10.00;99.90;;;;;;4911374;29;20308;-72
2024/01/03 13:58:48;;;;;;;1.85;1.00;;;10.00;99.90;;;;;;4912994;29;20315;-72
2024/01/03 14:01:16;;;;;;;2.75;0.70;;;10.00;99.90;;;;;;4902710;29;20237;-71
2024/01/03 14:03:43;;;;;;;1.95;1.02;;;10.00;99.90;;;;;;4913551;29;20277;-72
2024/01/03 14:06:10;;;;;;;1.10;0.75;;;10.00;99.90;;;;;;4913488;29;20223;-72
2024/01/03 14:08:37;;;;;;;1.15;0.50;;;9.90;99.90;;;;;;4910784;29;20213;-72
2024/01/03 14:11:04;;;;;;;1.15;0.57;;;9.90;99.90;;;;;;4912736;29;20246;-74
2024/01/03 14:13:32;;;;;;;0.65;0.63;;;9.90;99.90;;;;;;4910573;29;20655;-71
2024/01/03 14:15:59;;;;;;;1.00;0.40;;;9.90;99.90;;;;;;4914133;29;20204;-71
2024/01/03 14:18:27;;;;;;;0.40;0.40;;;9.90;99.90;;;;;;4912027;29;20221;-72
2024/01/03 14:20:55;;;;;;;1.50;0.50;;;9.90;99.90;;;;;;4908058;29;20251;-72
2024/01/03 14:23:22;;;;;;;1.85;1.45;;;9.80;99.90;;;;;;4907244;29;20758;-72
2024/01/03 14:25:49;;;;;;;0.80;0.70;;;9.80;99.90;;;;;;4912502;29;21159;-73
2024/01/03 14:28:18;;;;;;;1.85;0.70;;;9.70;99.90;;;;;;4916225;29;20610;-72
2024/01/03 14:30:45;;;;;;;0.70;0.70;;;9.60;99.90;;;;;;4906586;29;20269;-72
2024/01/03 14:33:12;;;;;;;1.13;1.05;;;9.60;99.90;;;;;;4912771;29;21859;-71
2024/01/03 14:35:40;;;;;;;1.27;0.70;;;9.50;99.90;;;;;;4915396;29;20208;-72
2024/01/03 14:38:07;;;;;;;1.38;1.35;;;9.40;99.90;;;;;;4906587;29;20215;-71
2024/01/03 14:40:35;;;;;;;3.10;0.93;;;9.40;99.90;;;;;;4914037;29;20288;-71
2024/01/03 14:43:10;;;;;;;1.65;1.55;;;9.30;99.90;;;;;;4913639;29;20260;-71
2024/01/03 14:45:37;;;;;;;2.28;0.93;;;9.20;99.90;;;;;;4912117;29;20218;-71
2024/01/03 14:48:04;;;;;;;1.02;0.90;;;9.20;99.90;;;;;;4913134;29;20294;-71
2024/01/03 14:50:31;;;;;;;0.52;0.52;;;9.20;99.90;;;;;;4911813;29;20214;-72
2024/01/03 14:52:59;;;;;;;1.10;1.00;;;9.10;99.90;;;;;;4911371;29;20234;-71
2024/01/03 14:55:26;;;;;;;2.10;2.00;;;9.10;99.90;;;;;;4911345;29;20673;-70
2024/01/03 14:57:54;;;;;;;0.80;0.80;;;9.00;99.90;;;;;;4910232;29;20211;-71
2024/01/03 15:00:23;;;;;;;2.25;1.20;;;9.00;99.90;;;;;;4909721;29;20587;-71
2024/01/03 15:02:51;;;;;;;2.88;1.20;;;9.00;99.90;;;;;;4912504;29;20319;-72
2024/01/03 15:05:18;;;;;;;0.45;0.45;;;9.00;99.90;;;;;;4911112;29;20206;-70
2024/01/03 15:07:45;;;;;;;1.13;0.60;;;9.00;99.90;;;;;;4917614;29;20309;-71
2024/01/03 15:10:13;;;;;;;1.20;1.20;;;9.00;99.90;;;;;;4910108;29;20648;-72
2024/01/03 15:12:40;;;;;;;1.02;0.95;;;9.00;99.90;;;;;;4912520;29;20223;-71
2024/01/03 15:15:08;;;;;;;1.30;0.73;;;9.00;99.90;;;;;;4914527;29;20226;-71
2024/01/03 15:17:35;;;;;;;0.70;0.70;;;9.00;99.90;;;;;;4914668;29;20239;-72
2024/01/03 15:20:02;;;;;;;0.70;0.70;;;9.00;99.90;;;;;;4917522;29;20218;-72
2024/01/03 15:22:29;;;;;;;0.70;0.70;;;9.00;99.90;;;;;;4911951;29;20315;-72
2024/01/03 15:24:55;;;;;;;1.20;1.20;;;9.00;99.90;;;;;;4911164;29;20242;-71
2024/01/03 15:27:23;;;;;;;1.02;0.88;;;9.00;99.90;;;;;;4906809;29;20211;-72
2024/01/03 15:29:50;;;;;;;1.00;0.80;;;9.00;99.90;;;;;;4911639;29;20310;-72
2024/01/03 15:32:17;;;;;;;0.60;0.55;;;9.00;99.90;;;;;;4911624;29;20745;-71
2024/01/03 15:34:44;;;;;;;1.02;0.90;;;9.10;99.90;;;;;;4908138;29;20590;-71
2024/01/03 15:37:12;;;;;;;0.65;0.65;;;9.10;99.90;;;;;;4910445;29;20670;-72
2024/01/03 15:39:38;;;;;;;1.13;0.60;;;9.10;99.90;;;;;;4912125;29;20226;-72
2024/01/03 15:42:07;;;;;;;0.50;0.50;;;9.10;99.90;;;;;;4912451;29;20297;-72
2024/01/03 15:44:36;;;;;;;0.60;0.60;;;9.00;99.90;;;;;;4911238;29;20236;-72
2024/01/03 15:47:03;;;;;;;0.75;0.75;;;9.00;99.90;;;;;;4912139;29;20234;-72
2024/01/03 15:49:29;;;;;;;0.80;0.80;;;9.00;99.90;;;;;;4911781;29;20644;-72
2024/01/03 15:51:57;;;;;;;0.50;0.50;;;9.00;99.90;;;;;;4912451;29;20255;-71
2024/01/03 15:54:24;;;;;;;2.33;2.22;;;9.00;99.90;;;;;;4908717;29;20282;-70
2024/01/03 15:56:51;;;;;;;0.63;0.63;;;9.00;99.90;;;;;;4912686;29;20239;-71
2024/01/03 15:59:17;;;;;;;1.52;0.95;;;9.00;99.90;;;;;;4912026;29;20215;-73
2024/01/03 16:01:45;;;;;;;0.70;0.70;;;9.00;99.90;;;;;;4909647;29;20248;-71
2024/01/03 16:04:14;;;;;;;1.65;0.80;;;9.00;99.90;;;;;;4912052;29;20259;-71
2024/01/03 16:06:41;;;;;;;0.80;0.80;;;9.00;99.90;;;;;;4911910;29;20224;-71
2024/01/03 16:09:09;;;;;;;2.50;0.88;;;9.00;99.90;;;;;;4908274;29;20698;-71
2024/01/03 16:11:35;;;;;;;1.10;1.10;;;9.00;99.90;;;;;;4906975;29;20228;-69
2024/01/03 16:14:02;;;;;;;0.75;0.50;;;8.90;99.90;;;;;;4907473;29;20278;-72
2024/01/03 16:16:29;;;;;;;2.25;1.10;;;8.90;99.90;;;;;;4912421;29;20211;-72
2024/01/03 16:18:57;;;;;;;1.60;1.30;;;8.90;99.90;;;;;;4908949;29;20210;-72
2024/01/03 16:21:24;;;;;;;1.90;1.70;;;8.90;99.90;;;;;;4915971;29;20225;-72
2024/01/03 16:23:51;;;;;;;2.38;1.88;;;8.80;99.90;;;;;;4914357;29;20253;-72
2024/01/03 16:26:18;;;;;;;0.98;0.98;;;8.80;99.90;;;;;;4917618;29;20214;-72
2024/01/03 16:28:48;;;;;;;2.83;0.85;;;8.70;99.90;;;;;;4913080;29;20573;-72
2024/01/03 16:31:15;;;;;;;0.40;0.40;;;8.70;99.90;;;;;;4915690;29;20249;-73
2024/01/03 16:33:43;;;;;;;3.42;1.30;;;8.70;99.90;;;;;;4910974;29;20207;-72
2024/01/03 16:36:11;;;;;;;1.00;1.00;;;8.60;99.90;;;;;;4917225;29;20474;-72
2024/01/03 16:38:37;;;;;;;0.90;0.90;;;8.60;99.90;;;;;;4915736;29;20214;-72
2024/01/03 16:41:04;;;;;;;2.55;2.05;;;8.60;99.90;;;;;;4914168;29;20558;-71
2024/01/03 16:43:31;;;;;;;1.10;0.98;;;8.50;99.90;;;;;;4910551;29;20218;-73
2024/01/03 16:45:58;;;;;;;0.98;0.65;;;8.50;99.90;;;;;;4915753;29;20302;-71
2024/01/03 16:48:25;;;;;;;0.75;0.75;;;8.60;99.90;;;;;;4914450;29;20582;-71
2024/01/03 16:50:52;;;;;;;0.73;0.73;;;8.60;99.90;;;;;;4914249;29;20230;-71
2024/01/03 16:53:20;;;;;;;0.95;0.95;;;8.60;99.90;;;;;;4913526;29;20210;-71
2024/01/03 16:55:46;;;;;;;0.43;0.43;;;8.70;99.90;;;;;;4911172;29;20640;-72
2024/01/03 16:58:13;;;;;;;3.03;0.70;;;8.70;99.90;;;;;;4910602;29;20581;-71
2024/01/03 17:00:39;;;;;;;6.53;1.88;;;8.80;99.90;;;;;;4912678;29;20231;-71
2024/01/03 17:03:06;;;;;;;2.50;2.30;;;8.80;99.90;;;;;;4912351;29;20229;-73
2024/01/03 17:05:33;;;;;;;2.17;1.65;;;8.80;99.90;;;;;;4913974;29;20224;-71
2024/01/03 17:08:01;;;;;;;3.15;1.40;;;8.70;99.90;;;;;;4908544;29;20579;-71
2024/01/03 17:10:29;;;;;;;1.90;1.20;;;8.80;99.90;;;;;;4913047;29;20231;-71
2024/01/03 17:12:56;;;;;;;5.00;3.55;;;8.70;99.90;;;;;;4911829;29;20216;-71
2024/01/03 17:15:23;;;;;;;2.55;1.75;;;8.80;99.90;;;;;;4920234;29;21955;-71
2024/01/03 17:17:50;;;;;;;0.68;0.68;;;8.80;99.90;;;;;;4915667;29;20211;-71
2024/01/03 17:20:17;;;;;;;4.00;1.67;;;8.80;99.90;;;;;;4918909;29;20216;-71
2024/01/03 17:22:44;;;;;;;2.05;1.85;;;8.80;99.90;;;;;;4913626;29;20211;-71
2024/01/03 17:25:12;;;;;;;3.25;1.60;;;8.80;99.90;;;;;;4911945;29;20234;-71
2024/01/03 17:27:40;;;;;;;0.80;0.80;;;8.90;99.90;;;;;;4912315;29;20222;-72
2024/01/03 17:30:09;;;;;;;4.20;1.67;;;8.80;99.90;;;;;;4914425;29;20206;-71
2024/01/03 17:32:36;;;;;;;1.42;1.30;;;8.90;99.90;;;;;;4912341;29;20662;-70
2024/01/03 17:35:03;;;;;;;1.95;1.95;;;8.90;99.90;;;;;;4913821;29;20210;-71
2024/01/03 17:37:29;;;;;;;7.82;0.95;;;8.90;99.90;;;;;;4912587;29;20234;-71
2024/01/03 17:39:56;;;;;;;3.78;1.30;;;8.80;99.90;;;;;;4919392;29;20619;-71
2024/01/03 17:42:23;;;;;;;2.58;0.73;;;8.80;99.90;;;;;;4913802;29;20231;-74
2024/01/03 17:44:51;;;;;;;0.75;0.75;;;8.80;99.90;;;;;;4919390;29;20709;-71
2024/01/03 17:47:17;;;;;;;2.90;0.95;;;8.80;99.90;;;;;;4914994;29;20219;-73
2024/01/03 17:49:45;;;;;;;2.72;0.68;;;8.80;99.90;;;;;;4914430;29;20233;-71
2024/01/03 17:52:11;;;;;;;0.43;0.43;;;8.80;99.90;;;;;;4914629;29;20246;-71
2024/01/03 17:54:39;;;;;;;1.10;1.10;;;8.80;99.90;;;;;;4914662;29;20210;-71
2024/01/03 17:57:08;;;;;;;1.15;1.15;;;8.80;99.90;;;;;;4913777;29;20649;-71